Decoded Metar for LKPR (PRAGUE in CZECH REPUBLIC) (IATA:PRG) | Meteo·Mobile Aviation Weather
aviador You're here:

LKPR Decoded Metar

PRAGUE in CZECH REPUBLIC
Report Time2020-01-19 07:00:00
UTC Time2020-01-19 07:08:27
Flight Rules vfr VFR
WindVRB at 02 kt
Visibility9999 m
Phenomena:N/A
Clouds:Scattered 023 Hf
Broken 046 Hf
Expected CloudBase > 400 ft AGL from Temp-Dew spread
Ceiling4,600 ft
Temp-1°C (ISA -14)
Dew Point-2°C (93% RH)
AAT-4.0°C
QNH1029 hPa
Density Alt-932 ft
Elevation1,198 ft
Report Wrong Elevation
Raw Report
METAR LKPR 190700Z VRB02KT 9999 SCT023 BKN046 M01/M02 Q1029 R24/29//95
R30/390193 NOSIG=

Extra information for LKPR:More info

Metar Taf Metar & Taf Last 4 Metars F.Rules Stats Wind Profile Meteogram Temp Stats Airport Information Weather charts Add Link Nearby VenuesMetar ALERT Operation Metar Decoded Social comments